Margaret Chase Smith — WTM3462 — position and weather

sailwx.info

Track history (hours):
 
Tides and Currents Weather Stations Pressure Air Temp Water Temp Dewpoint Dewpoint Depression Visibility Wind Speed Wind Dir Waves Ship Positions

Margaret Chase Smith

Owner: Maine State Ferry Service, ROCKLAND, ME. More information available from US FCC via Universal Licensing System and Coast Guard Vessel Documentation Center.

Last reported at 2018-Aug-19 22:53 UTC. Time now 2018-Aug-19 23:13 UTC.
Position N 44°17' W 068°57'.

Length 50 m.

Type: Passenger vessel. MMSI: 367191630.

Date/timePositionNaut miles runAvg speedWind from/ knotsBaromVisibWave heightAir tempDewpointWater temp
2018-Aug-19 22:53N 44°17' W 068°57'0 0.0
2018-Aug-19 22:29N 44°17' W 068°57'0 0.0
2018-Aug-19 22:00N 44°17' W 068°57'0 0.0
2018-Aug-19 21:29N 44°17' W 068°57'2 2.4
2018-Aug-19 20:41N 44°17' W 068°59'2 9.0
2018-Aug-19 20:28N 44°17' W 068°57'2 3.4
2018-Aug-19 19:43N 44°17' W 069°00'2 9.2
2018-Aug-19 19:27N 44°17' W 068°57'2 3.2
2018-Aug-19 18:43N 44°17' W 068°60'211.1
2018-Aug-19 18:30N 44°17' W 068°57'2 3.2
2018-Aug-19 17:44N 44°17' W 069°00'211.2
2018-Aug-19 17:30N 44°17' W 068°57'2 2.6
2018-Aug-19 16:41N 44°17' W 068°60'210.8
2018-Aug-19 16:29N 44°17' W 068°57'0 0.0
2018-Aug-19 15:58N 44°17' W 068°57'0 0.0
2018-Aug-19 15:30N 44°17' W 068°57'2 2.7
2018-Aug-19 14:41N 44°17' W 068°60'2 9.0
2018-Aug-19 14:27N 44°17' W 068°57'2 2.5
2018-Aug-19 13:42N 44°17' W 068°59'2 9.1
2018-Aug-19 13:29N 44°17' W 068°57'3 5.1
2018-Aug-19 13:00N 44°17' W 069°00'3 4.7
2018-Aug-19 12:27N 44°17' W 068°57'0 0.0
2018-Aug-19 11:59N 44°17' W 068°57'0 0.0
2018-Aug-19 11:30N 44°17' W 068°57'0 0.0
2018-Aug-19 10:56N 44°17' W 068°57'0 0.0
2018-Aug-19 10:24N 44°17' W 068°57'0 0.0
2018-Aug-19 09:58N 44°17' W 068°57'0 0.0
2018-Aug-19 09:17N 44°17' W 068°57'0 0.0
2018-Aug-19 09:00N 44°17' W 068°57'0 0.0
2018-Aug-19 08:26N 44°17' W 068°57'0 0.0
2018-Aug-19 07:56N 44°17' W 068°57'0 0.0
2018-Aug-19 07:28N 44°17' W 068°57'0 0.0
2018-Aug-19 06:59N 44°17' W 068°57'0 0.0
2018-Aug-19 06:29N 44°17' W 068°57'0 0.0
2018-Aug-19 06:00N 44°17' W 068°57'0 0.0
2018-Aug-19 05:30N 44°17' W 068°57'0 0.0
2018-Aug-19 05:00N 44°17' W 068°57'0 0.0
2018-Aug-19 04:30N 44°17' W 068°57'0 0.0
2018-Aug-19 04:00N 44°17' W 068°57'0 0.0
2018-Aug-19 03:30N 44°17' W 068°57'0 0.0
2018-Aug-19 02:58N 44°17' W 068°57'0 0.0
2018-Aug-19 02:30N 44°17' W 068°57'0 0.0
2018-Aug-19 02:00N 44°17' W 068°57'0 0.0
2018-Aug-19 01:22N 44°17' W 068°57'0 0.0
2018-Aug-19 01:00N 44°17' W 068°57'0 0.0
2018-Aug-19 00:22N 44°17' W 068°57'0 0.0
2018-Aug-18 23:59N 44°17' W 068°57'0 0.0
2018-Aug-18 23:30N 44°17' W 068°57'0 0.0
2018-Aug-18 22:59N 44°17' W 068°57'0 0.0
2018-Aug-18 22:18N 44°17' W 068°57'0 0.0
2018-Aug-18 21:47N 44°17' W 068°57'0 0.0
2018-Aug-18 21:16N 44°17' W 068°57'2 3.0
2018-Aug-18 20:40N 44°17' W 068°59'2 8.2
2018-Aug-18 20:26N 44°17' W 068°57'2 2.7
2018-Aug-18 19:41N 44°17' W 068°59'2 4.4
2018-Aug-18 19:13N 44°17' W 068°57'211.1
2018-Aug-18 19:00N 44°17' W 068°60'2 4.5
2018-Aug-18 18:28N 44°17' W 068°57'2 3.3
2018-Aug-18 17:43N 44°17' W 069°00'2 9.8
2018-Aug-18 17:28N 44°17' W 068°57'2 2.6
2018-Aug-18 16:41N 44°17' W 068°59'2 9.5
2018-Aug-18 16:28N 44°17' W 068°57'0 0.0
2018-Aug-18 15:57N 44°17' W 068°57'1 0.9
2018-Aug-18 15:09N 44°17' W 068°58'2 4.5
2018-Aug-18 14:46N 44°17' W 068°60'2 9.3
2018-Aug-18 14:30N 44°17' W 068°57'2 2.6
2018-Aug-18 13:43N 44°17' W 068°59'2 6.2
2018-Aug-18 13:23N 44°17' W 068°57'2 3.7
2018-Aug-18 12:43N 44°17' W 069°00'2 8.7
2018-Aug-18 12:26N 44°17' W 068°57'3 6.0
2018-Aug-18 12:00N 44°17' W 069°00'3 4.8
2018-Aug-18 11:28N 44°17' W 068°57'0 0.0
2018-Aug-18 11:00N 44°17' W 068°57'0 0.0
2018-Aug-18 10:26N 44°17' W 068°57'0 0.0
2018-Aug-18 10:00N 44°17' W 068°57'0 0.0
2018-Aug-18 09:30N 44°17' W 068°57'0 0.0
2018-Aug-18 09:00N 44°17' W 068°57'0 0.0
2018-Aug-18 08:20N 44°17' W 068°57'0 0.0
2018-Aug-18 08:00N 44°17' W 068°57'0 0.0
2018-Aug-18 06:50N 44°17' W 068°57'0 0.0
2018-Aug-18 06:22N 44°17' W 068°57'0 0.0
2018-Aug-18 05:56N 44°17' W 068°57'0 0.0
2018-Aug-18 05:28N 44°17' W 068°57'0 0.0
2018-Aug-18 05:00N 44°17' W 068°57'0 0.0
2018-Aug-18 04:30N 44°17' W 068°57'0 0.0
2018-Aug-18 03:58N 44°17' W 068°57'0 0.0
2018-Aug-18 03:30N 44°17' W 068°57'0 0.0
2018-Aug-18 02:58N 44°17' W 068°57'0 0.0
2018-Aug-18 02:24N 44°17' W 068°57'0 0.0
2018-Aug-18 01:33N 44°17' W 068°57'0 0.0
2018-Aug-18 01:11N 44°17' W 068°57'0 0.0
2018-Aug-18 01:01N 44°17' W 068°57'0 0.0
2018-Aug-18 00:30N 44°17' W 068°57'0 0.0
2018-Aug-18 00:00N 44°17' W 068°57'0 0.0
2018-Aug-17 23:30N 44°17' W 068°57'0 0.0
2018-Aug-17 23:00N 44°17' W 068°57'0 0.0
2018-Aug-17 22:30N 44°17' W 068°57'0 0.0
2018-Aug-17 21:59N 44°17' W 068°57'0 0.0
2018-Aug-17 21:27N 44°17' W 068°57'2 3.1
2018-Aug-17 20:43N 44°17' W 068°60'2 3.4
2018-Aug-17 20:10N 44°17' W 068°57'2 4.9
2018-Aug-17 19:44N 44°17' W 069°00'3 4.8
2018-Aug-17 19:13N 44°17' W 068°57'2 0.8
2018-Aug-17 16:41N 44°17' W 068°59'2 1.2
2018-Aug-17 15:13N 44°17' W 068°57'2 4.6
2018-Aug-17 14:44N 44°17' W 068°60'0 0.1
2018-Aug-17 13:43N 44°17' W 068°60'2 5.5
2018-Aug-17 13:16N 44°17' W 068°57'2 4.4
2018-Aug-17 12:43N 44°17' W 068°60'2 7.7
2018-Aug-17 12:25N 44°17' W 068°57'2 2.8
2018-Aug-17 11:41N 44°17' W 068°59'211.4
2018-Aug-17 11:30N 44°17' W 068°57'0 0.0
2018-Aug-17 10:59N 44°17' W 068°57'0 0.0
2018-Aug-17 10:23N 44°17' W 068°57'0 0.0
2018-Aug-17 09:47N 44°17' W 068°57'0 0.0
2018-Aug-17 09:30N 44°17' W 068°57'0 0.0
2018-Aug-17 08:58N 44°17' W 068°57'0 0.0
2018-Aug-17 08:29N 44°17' W 068°57'0 0.0
2018-Aug-17 07:56N 44°17' W 068°57'0 0.0
2018-Aug-17 07:09N 44°17' W 068°57'0 0.0
2018-Aug-17 06:58N 44°17' W 068°57'0 0.0
2018-Aug-17 06:30N 44°17' W 068°57'0 0.0
2018-Aug-17 05:58N 44°17' W 068°57'0 0.0
2018-Aug-17 05:30N 44°17' W 068°57'0 0.0
2018-Aug-17 04:57N 44°17' W 068°57'0 0.0
2018-Aug-17 04:30N 44°17' W 068°57'0 0.0
2018-Aug-17 04:00N 44°17' W 068°57'0 0.0
2018-Aug-17 03:30N 44°17' W 068°57'0 0.0
2018-Aug-17 03:00N 44°17' W 068°57'0 0.0
2018-Aug-17 02:30N 44°17' W 068°57'0 0.0
2018-Aug-17 02:00N 44°17' W 068°57'0 0.0
2018-Aug-17 01:30N 44°17' W 068°57'0 0.0
2018-Aug-17 00:54N 44°17' W 068°57'0 0.0
2018-Aug-17 00:20N 44°17' W 068°57'0 0.0
2018-Aug-17 00:00N 44°17' W 068°57'0 0.0
2018-Aug-16 23:28N 44°17' W 068°57'0 0.0
2018-Aug-16 22:56N 44°17' W 068°57'0 0.0
2018-Aug-16 22:30N 44°17' W 068°57'0 0.0
2018-Aug-16 21:55N 44°17' W 068°57'0 0.0
2018-Aug-16 21:29N 44°17' W 068°57'2 5.0
2018-Aug-16 21:00N 44°17' W 068°60'2 4.9
2018-Aug-16 20:30N 44°17' W 068°57'1 1.8
2018-Aug-16 19:43N 44°17' W 068°59'1 5.3
2018-Aug-16 19:27N 44°17' W 068°57'2 2.5
2018-Aug-16 18:47N 44°17' W 068°59'2 5.5
2018-Aug-16 18:29N 44°17' W 068°57'2 3.2
2018-Aug-16 17:44N 44°17' W 068°60'2 9.9
2018-Aug-16 17:29N 44°17' W 068°57'2 3.0
2018-Aug-16 16:43N 44°17' W 068°60'2 9.1
2018-Aug-16 16:27N 44°17' W 068°57'0 0.0
2018-Aug-16 16:00N 44°17' W 068°57'0 0.0
2018-Aug-16 15:30N 44°17' W 068°57'2 5.0
2018-Aug-16 15:00N 44°17' W 069°00'2 5.0
2018-Aug-16 14:30N 44°17' W 068°57'2 2.7
2018-Aug-16 13:44N 44°17' W 068°60'2 8.9
2018-Aug-16 13:30N 44°17' W 068°57'2 2.9
2018-Aug-16 12:42N 44°17' W 068°60'210.7
2018-Aug-16 12:29N 44°17' W 068°57'2 3.2
2018-Aug-16 11:43N 44°17' W 069°00'211.9
2018-Aug-16 11:30N 44°17' W 068°57'0 0.1
2018-Aug-16 11:00N 44°17' W 068°57'0 0.0
2018-Aug-16 10:29N 44°17' W 068°57'0 0.0
2018-Aug-16 10:00N 44°17' W 068°57'0 0.0
2018-Aug-16 09:18N 44°17' W 068°57'0 0.0
2018-Aug-16 04:38N 44°17' W 068°57'0 0.0
2018-Aug-16 04:27N 44°17' W 068°57'0 0.0
2018-Aug-16 04:00N 44°17' W 068°57'0 0.0
2018-Aug-16 03:29N 44°17' W 068°57'0 0.0
2018-Aug-16 02:25N 44°17' W 068°57'0 0.0
2018-Aug-16 01:49N 44°17' W 068°57'0 0.0
2018-Aug-16 01:26N 44°17' W 068°57'0 0.0
2018-Aug-16 01:00N 44°17' W 068°57'0 0.0
2018-Aug-16 00:30N 44°17' W 068°57'0 0.0
2018-Aug-16 00:00N 44°17' W 068°57'0 0.0
2018-Aug-15 23:30N 44°17' W 068°57'0 0.0
2018-Aug-15 23:00N 44°17' W 068°57'0 0.0
2018-Aug-15 22:30N 44°17' W 068°57'0 0.0
2018-Aug-15 22:00N 44°17' W 068°57'2 3.5
2018-Aug-15 21:30N 44°17' W 068°59'1 1.7
2018-Aug-15 21:00N 44°17' W 069°00'3 5.1
2018-Aug-15 20:30N 44°17' W 068°57'3 5.4
2018-Aug-15 20:00N 44°17' W 069°00'3 3.1
2018-Aug-15 19:09N 44°17' W 068°57'1 5.7
2018-Aug-15 19:00N 44°17' W 068°58'2 3.6
2018-Aug-15 18:29N 44°17' W 069°00'0 0.0
2018-Aug-15 17:51N 44°17' W 069°00'3 4.7
2018-Aug-15 17:17N 44°17' W 068°57'3 7.2
2018-Aug-15 16:54N 44°17' W 069°00'3 1.6
2018-Aug-15 15:15N 44°17' W 068°57'3 9.9
2018-Aug-15 14:58N 44°17' W 069°00'3 3.8
2018-Aug-15 14:16N 44°17' W 068°57'3 5.1
2018-Aug-15 13:46N 44°17' W 069°00'3 9.8
2018-Aug-15 13:30N 44°17' W 068°57'3 4.3
2018-Aug-15 12:53N 44°17' W 069°00'3 4.5
2018-Aug-15 12:17N 44°17' W 068°57'3 5.5
2018-Aug-15 11:49N 44°17' W 069°00'3 1.2
2018-Aug-15 09:38N 44°17' W 068°57'0 0.0
2018-Aug-15 09:28N 44°17' W 068°57'0 0.0
2018-Aug-15 08:52N 44°17' W 068°57'0 0.0
2018-Aug-15 08:13N 44°17' W 068°57'0 0.0
2018-Aug-15 07:55N 44°17' W 068°57'0 0.0
2018-Aug-15 07:30N 44°17' W 068°57'0 0.0
2018-Aug-15 07:00N 44°17' W 068°57'0 0.0
2018-Aug-15 02:12N 44°17' W 068°57'0 0.0
2018-Aug-15 02:00N 44°17' W 068°57'0 0.0
2018-Aug-15 01:25N 44°17' W 068°57'0 0.0
2018-Aug-15 00:54N 44°17' W 068°57'0 0.0
2018-Aug-14 21:14N 44°17' W 068°57'210.9
2018-Aug-14 21:00N 44°17' W 069°00'2 3.1
2018-Aug-14 20:13N 44°17' W 068°57'211.2
2018-Aug-14 20:00N 44°17' W 068°60'2 3.2
2018-Aug-14 19:15N 44°17' W 068°57'210.4
2018-Aug-14 19:00N 44°17' W 069°00'3 3.5
2018-Aug-14 18:17N 44°17' W 068°57'3 9.4
2018-Aug-14 18:00N 44°17' W 069°00'3 5.4
2018-Aug-14 17:30N 44°17' W 068°57'2 4.9
2018-Aug-14 17:01N 44°17' W 069°00'2 4.9
2018-Aug-14 16:30N 44°17' W 068°57'0 0.0
2018-Aug-14 15:14N 44°17' W 068°57'3 6.0
2018-Aug-14 14:48N 44°17' W 069°00'3 8.9
2018-Aug-14 14:30N 44°17' W 068°57'3 5.2
2018-Aug-14 13:59N 44°17' W 069°00'3 4.3
2018-Aug-14 13:21N 44°17' W 068°57'3 6.8
2018-Aug-14 12:58N 44°17' W 069°00'3 5.8
2018-Aug-14 12:30N 44°17' W 068°57'3 5.2
2018-Aug-14 11:59N 44°17' W 069°00'3 5.3
2018-Aug-14 11:29N 44°17' W 068°57'0 0.0
2018-Aug-14 11:00N 44°17' W 068°57'0 0.0
2018-Aug-14 10:24N 44°17' W 068°57'0 0.0
2018-Aug-14 09:59N 44°17' W 068°57'0 0.0
2018-Aug-14 09:30N 44°17' W 068°57'0 0.0
2018-Aug-14 09:00N 44°17' W 068°57'0 0.0
2018-Aug-14 08:30N 44°17' W 068°57'0 0.0
2018-Aug-14 07:55N 44°17' W 068°57'0 0.0
2018-Aug-14 07:29N 44°17' W 068°57'0 0.0
2018-Aug-14 06:58N 44°17' W 068°57'0 0.0
2018-Aug-14 06:11N 44°17' W 068°57'0 0.0
2018-Aug-14 02:43N 44°17' W 068°57'0 0.0
2018-Aug-14 02:24N 44°17' W 068°57'0 0.0
2018-Aug-14 01:56N 44°17' W 068°57'0 0.0
2018-Aug-14 01:30N 44°17' W 068°57'0 0.0
2018-Aug-14 00:58N 44°17' W 068°57'0 0.0
2018-Aug-14 00:12N 44°17' W 068°57'0 0.0
2018-Aug-13 23:56N 44°17' W 068°57'0 0.0
2018-Aug-13 23:08N 44°17' W 068°57'0 0.0
2018-Aug-13 23:00N 44°17' W 068°57'0 0.0
2018-Aug-13 22:26N 44°17' W 068°57'0 0.0
2018-Aug-13 22:00N 44°17' W 068°57'0 0.0
2018-Aug-13 21:14N 44°17' W 068°57'311.3
2018-Aug-13 21:00N 44°17' W 069°00'3 4.8
2018-Aug-13 20:28N 44°17' W 068°57'3 5.9
2018-Aug-13 20:00N 44°17' W 069°00'3 3.7
2018-Aug-13 19:16N 44°17' W 068°57'310.1
2018-Aug-13 19:00N 44°17' W 069°00'3 4.3
2018-Aug-13 18:24N 44°17' W 068°57'3 6.3
2018-Aug-13 17:59N 44°17' W 069°00'3 5.3
2018-Aug-13 17:29N 44°17' W 068°57'3 5.5
2018-Aug-13 16:59N 44°17' W 069°00'3 5.4
2018-Aug-13 16:30N 44°17' W 068°57'0 0.0
2018-Aug-13 16:00N 44°17' W 068°57'0 0.0
2018-Aug-13 15:30N 44°17' W 068°57'3 4.6
2018-Aug-13 14:55N 44°17' W 069°00'3 6.2
2018-Aug-13 14:29N 44°17' W 068°57'3 4.7
2018-Aug-13 13:55N 44°17' W 069°00'3 6.0
2018-Aug-13 13:29N 44°17' W 068°57'3 5.4
2018-Aug-13 12:59N 44°17' W 069°00'3 5.1
2018-Aug-13 12:27N 44°17' W 068°57'3 5.9
2018-Aug-13 12:00N 44°17' W 069°00'3 5.3
2018-Aug-13 11:30N 44°17' W 068°57'0 0.0
2018-Aug-12 21:23N 44°17' W 068°57'3 5.5
2018-Aug-12 20:54N 44°17' W 069°00'3 6.4
2018-Aug-12 20:30N 44°17' W 068°57'3 4.8
2018-Aug-12 19:59N 44°17' W 069°00'3 5.6
2018-Aug-12 19:31N 44°17' W 068°57'2 4.9
2018-Aug-12 19:00N 44°17' W 069°00'2 5.0
2018-Aug-12 18:31N 44°17' W 068°57'3 5.3
2018-Aug-12 18:00N 44°17' W 069°00'3 5.3
2018-Aug-12 17:31N 44°17' W 068°57'3 5.3
2018-Aug-12 17:00N 44°17' W 069°00'3 5.3
2018-Aug-12 16:30N 44°17' W 068°57'0 0.0
2018-Aug-12 16:00N 44°17' W 068°57'0 0.0
2018-Aug-12 15:30N 44°17' W 068°57'3 5.3
2018-Aug-12 15:00N 44°17' W 069°00'3 5.4
2018-Aug-12 14:30N 44°17' W 068°57'3 5.2
2018-Aug-12 14:00N 44°17' W 069°00'3 5.5
2018-Aug-12 13:30N 44°17' W 068°57'3 5.4
2018-Aug-12 13:00N 44°17' W 069°00'3 5.3
2018-Aug-12 12:30N 44°17' W 068°57'3 5.3
2018-Aug-12 12:00N 44°17' W 069°00'3 5.3
2018-Aug-12 11:30N 44°17' W 068°57'0 0.0
2018-Aug-11 21:15N 44°17' W 068°57'310.7
2018-Aug-11 21:01N 44°17' W 069°00'3 5.2
2018-Aug-11 20:30N 44°17' W 068°57'3 5.3
2018-Aug-11 20:00N 44°17' W 069°00'3 5.3
2018-Aug-11 19:30N 44°17' W 068°57'3 5.3
2018-Aug-11 19:00N 44°17' W 069°00'3 5.3
2018-Aug-11 18:30N 44°17' W 068°57'3 5.3
2018-Aug-11 18:00N 44°17' W 069°00'3 5.4
2018-Aug-11 17:30N 44°17' W 068°57'3 5.4
2018-Aug-11 17:00N 44°17' W 069°00'3 5.3
2018-Aug-11 16:30N 44°17' W 068°57'0 0.1
2018-Aug-11 16:00N 44°17' W 068°57'0 0.0
2018-Aug-11 15:30N 44°17' W 068°57'3 5.4
2018-Aug-11 15:00N 44°17' W 069°00'3 5.2
2018-Aug-11 14:29N 44°17' W 068°57'3 5.5
2018-Aug-11 14:00N 44°17' W 069°00'3 5.3
2018-Aug-11 13:30N 44°17' W 068°57'3 5.3
2018-Aug-11 13:00N 44°17' W 069°00'3 5.4
2018-Aug-11 12:30N 44°17' W 068°57'3 5.3
2018-Aug-11 12:00N 44°17' W 069°00'3 5.4
2018-Aug-11 11:30N 44°17' W 068°57'0 0.0
2018-Aug-10 21:17N 44°17' W 068°57'3 9.0
2018-Aug-10 21:01N 44°17' W 069°00'3 5.1
2018-Aug-10 20:30N 44°17' W 068°57'3 5.4
2018-Aug-10 20:00N 44°17' W 069°00'3 5.4
2018-Aug-10 19:30N 44°17' W 068°57'3 3.2
2018-Aug-10 18:43N 44°17' W 069°00'212.3
2018-Aug-10 18:30N 44°17' W 068°57'2 3.2
2018-Aug-10 17:44N 44°17' W 069°00'210.1
2018-Aug-10 17:30N 44°17' W 068°57'2 2.8
2018-Aug-10 16:42N 44°17' W 068°60'210.9
2018-Aug-10 16:30N 44°17' W 068°57'0 0.3
2018-Aug-10 16:00N 44°17' W 068°57'1 1.1
2018-Aug-10 15:30N 44°17' W 068°58'2 3.9
2018-Aug-10 15:00N 44°17' W 069°00'3 5.0
2018-Aug-10 14:28N 44°17' W 068°57'3 4.9
2018-Aug-10 13:56N 44°17' W 069°00'3 5.9
2018-Aug-10 13:28N 44°17' W 068°57'3 5.6
2018-Aug-10 13:00N 44°17' W 069°00'3 5.5
2018-Aug-10 12:30N 44°17' W 068°57'3 5.4
2018-Aug-10 12:00N 44°17' W 069°00'3 5.2
2018-Aug-10 11:30N 44°17' W 068°57'1 2.3
2018-Aug-10 11:00N 44°17' W 068°58'1 2.2
2018-Aug-10 10:30N 44°17' W 068°57'  
Track history (hours):
 
Tides and Currents Weather Stations Pressure Air Temp Water Temp Dewpoint Dewpoint Depression Visibility Wind Speed Wind Dir Waves Ship Positions

Margaret Chase Smith

Owner: Maine State Ferry Service, ROCKLAND, ME. More information available from US FCC via Universal Licensing System and Coast Guard Vessel Documentation Center.

Last reported at 2018-Aug-19 22:53 UTC. Time now 2018-Aug-19 23:13 UTC.
Position N 44°17' W 068°57'.

Length 50 m.

Type: Passenger vessel. MMSI: 367191630.

Date/timePositionNaut miles runAvg speedWind from/ knotsBaromVisibWave heightAir tempDewpointWater temp
2018-Aug-19 22:53N 44°17' W 068°57'0 0.0
2018-Aug-19 22:29N 44°17' W 068°57'0 0.0
2018-Aug-19 22:00N 44°17' W 068°57'0 0.0
2018-Aug-19 21:29N 44°17' W 068°57'2 2.4
2018-Aug-19 20:41N 44°17' W 068°59'2 9.0
2018-Aug-19 20:28N 44°17' W 068°57'2 3.4
2018-Aug-19 19:43N 44°17' W 069°00'2 9.2
2018-Aug-19 19:27N 44°17' W 068°57'2 3.2
2018-Aug-19 18:43N 44°17' W 068°60'211.1
2018-Aug-19 18:30N 44°17' W 068°57'2 3.2
2018-Aug-19 17:44N 44°17' W 069°00'211.2
2018-Aug-19 17:30N 44°17' W 068°57'2 2.6
2018-Aug-19 16:41N 44°17' W 068°60'210.8
2018-Aug-19 16:29N 44°17' W 068°57'0 0.0
2018-Aug-19 15:58N 44°17' W 068°57'0 0.0
2018-Aug-19 15:30N 44°17' W 068°57'2 2.7
2018-Aug-19 14:41N 44°17' W 068°60'2 9.0
2018-Aug-19 14:27N 44°17' W 068°57'2 2.5
2018-Aug-19 13:42N 44°17' W 068°59'2 9.1
2018-Aug-19 13:29N 44°17' W 068°57'3 5.1
2018-Aug-19 13:00N 44°17' W 069°00'3 4.7
2018-Aug-19 12:27N 44°17' W 068°57'0 0.0
2018-Aug-19 11:59N 44°17' W 068°57'0 0.0
2018-Aug-19 11:30N 44°17' W 068°57'0 0.0
2018-Aug-19 10:56N 44°17' W 068°57'0 0.0
2018-Aug-19 10:24N 44°17' W 068°57'0 0.0
2018-Aug-19 09:58N 44°17' W 068°57'0 0.0
2018-Aug-19 09:17N 44°17' W 068°57'0 0.0
2018-Aug-19 09:00N 44°17' W 068°57'0 0.0
2018-Aug-19 08:26N 44°17' W 068°57'0 0.0
2018-Aug-19 07:56N 44°17' W 068°57'0 0.0
2018-Aug-19 07:28N 44°17' W 068°57'0 0.0
2018-Aug-19 06:59N 44°17' W 068°57'0 0.0
2018-Aug-19 06:29N 44°17' W 068°57'0 0.0
2018-Aug-19 06:00N 44°17' W 068°57'0 0.0
2018-Aug-19 05:30N 44°17' W 068°57'0 0.0
2018-Aug-19 05:00N 44°17' W 068°57'0 0.0
2018-Aug-19 04:30N 44°17' W 068°57'0 0.0
2018-Aug-19 04:00N 44°17' W 068°57'0 0.0
2018-Aug-19 03:30N 44°17' W 068°57'0 0.0
2018-Aug-19 02:58N 44°17' W 068°57'0 0.0
2018-Aug-19 02:30N 44°17' W 068°57'0 0.0
2018-Aug-19 02:00N 44°17' W 068°57'0 0.0
2018-Aug-19 01:22N 44°17' W 068°57'0 0.0
2018-Aug-19 01:00N 44°17' W 068°57'0 0.0
2018-Aug-19 00:22N 44°17' W 068°57'0 0.0
2018-Aug-18 23:59N 44°17' W 068°57'0 0.0
2018-Aug-18 23:30N 44°17' W 068°57'0 0.0
2018-Aug-18 22:59N 44°17' W 068°57'0 0.0
2018-Aug-18 22:18N 44°17' W 068°57'0 0.0
2018-Aug-18 21:47N 44°17' W 068°57'0 0.0
2018-Aug-18 21:16N 44°17' W 068°57'2 3.0
2018-Aug-18 20:40N 44°17' W 068°59'2 8.2
2018-Aug-18 20:26N 44°17' W 068°57'2 2.7
2018-Aug-18 19:41N 44°17' W 068°59'2 4.4
2018-Aug-18 19:13N 44°17' W 068°57'211.1
2018-Aug-18 19:00N 44°17' W 068°60'2 4.5
2018-Aug-18 18:28N 44°17' W 068°57'2 3.3
2018-Aug-18 17:43N 44°17' W 069°00'2 9.8
2018-Aug-18 17:28N 44°17' W 068°57'2 2.6
2018-Aug-18 16:41N 44°17' W 068°59'2 9.5
2018-Aug-18 16:28N 44°17' W 068°57'0 0.0
2018-Aug-18 15:57N 44°17' W 068°57'1 0.9
2018-Aug-18 15:09N 44°17' W 068°58'2 4.5
2018-Aug-18 14:46N 44°17' W 068°60'2 9.3
2018-Aug-18 14:30N 44°17' W 068°57'2 2.6
2018-Aug-18 13:43N 44°17' W 068°59'2 6.2
2018-Aug-18 13:23N 44°17' W 068°57'2 3.7
2018-Aug-18 12:43N 44°17' W 069°00'2 8.7
2018-Aug-18 12:26N 44°17' W 068°57'3 6.0
2018-Aug-18 12:00N 44°17' W 069°00'3 4.8
2018-Aug-18 11:28N 44°17' W 068°57'0 0.0
2018-Aug-18 11:00N 44°17' W 068°57'0 0.0
2018-Aug-18 10:26N 44°17' W 068°57'0 0.0
2018-Aug-18 10:00N 44°17' W 068°57'0 0.0
2018-Aug-18 09:30N 44°17' W 068°57'0 0.0
2018-Aug-18 09:00N 44°17' W 068°57'0 0.0
2018-Aug-18 08:20N 44°17' W 068°57'0 0.0
2018-Aug-18 08:00N 44°17' W 068°57'0 0.0
2018-Aug-18 06:50N 44°17' W 068°57'0 0.0
2018-Aug-18 06:22N 44°17' W 068°57'0 0.0
2018-Aug-18 05:56N 44°17' W 068°57'0 0.0
2018-Aug-18 05:28N 44°17' W 068°57'0 0.0
2018-Aug-18 05:00N 44°17' W 068°57'0 0.0
2018-Aug-18 04:30N 44°17' W 068°57'0 0.0
2018-Aug-18 03:58N 44°17' W 068°57'0 0.0
2018-Aug-18 03:30N 44°17' W 068°57'0 0.0
2018-Aug-18 02:58N 44°17' W 068°57'0 0.0
2018-Aug-18 02:24N 44°17' W 068°57'0 0.0
2018-Aug-18 01:33N 44°17' W 068°57'0 0.0
2018-Aug-18 01:11N 44°17' W 068°57'0 0.0
2018-Aug-18 01:01N 44°17' W 068°57'0 0.0
2018-Aug-18 00:30N 44°17' W 068°57'0 0.0
2018-Aug-18 00:00N 44°17' W 068°57'0 0.0
2018-Aug-17 23:30N 44°17' W 068°57'0 0.0
2018-Aug-17 23:00N 44°17' W 068°57'0 0.0
2018-Aug-17 22:30N 44°17' W 068°57'0 0.0
2018-Aug-17 21:59N 44°17' W 068°57'0 0.0
2018-Aug-17 21:27N 44°17' W 068°57'2 3.1
2018-Aug-17 20:43N 44°17' W 068°60'2 3.4
2018-Aug-17 20:10N 44°17' W 068°57'2 4.9
2018-Aug-17 19:44N 44°17' W 069°00'3 4.8
2018-Aug-17 19:13N 44°17' W 068°57'2 0.8
2018-Aug-17 16:41N 44°17' W 068°59'2 1.2
2018-Aug-17 15:13N 44°17' W 068°57'2 4.6
2018-Aug-17 14:44N 44°17' W 068°60'0 0.1
2018-Aug-17 13:43N 44°17' W 068°60'2 5.5
2018-Aug-17 13:16N 44°17' W 068°57'2 4.4
2018-Aug-17 12:43N 44°17' W 068°60'2 7.7
2018-Aug-17 12:25N 44°17' W 068°57'2 2.8
2018-Aug-17 11:41N 44°17' W 068°59'211.4
2018-Aug-17 11:30N 44°17' W 068°57'0 0.0
2018-Aug-17 10:59N 44°17' W 068°57'0 0.0
2018-Aug-17 10:23N 44°17' W 068°57'0 0.0
2018-Aug-17 09:47N 44°17' W 068°57'0 0.0
2018-Aug-17 09:30N 44°17' W 068°57'0 0.0
2018-Aug-17 08:58N 44°17' W 068°57'0 0.0
2018-Aug-17 08:29N 44°17' W 068°57'0 0.0
2018-Aug-17 07:56N 44°17' W 068°57'0 0.0
2018-Aug-17 07:09N 44°17' W 068°57'0 0.0
2018-Aug-17 06:58N 44°17' W 068°57'0 0.0
2018-Aug-17 06:30N 44°17' W 068°57'0 0.0
2018-Aug-17 05:58N 44°17' W 068°57'0 0.0
2018-Aug-17 05:30N 44°17' W 068°57'0 0.0
2018-Aug-17 04:57N 44°17' W 068°57'0 0.0
2018-Aug-17 04:30N 44°17' W 068°57'0 0.0
2018-Aug-17 04:00N 44°17' W 068°57'0 0.0
2018-Aug-17 03:30N 44°17' W 068°57'0 0.0
2018-Aug-17 03:00N 44°17' W 068°57'0 0.0
2018-Aug-17 02:30N 44°17' W 068°57'0 0.0
2018-Aug-17 02:00N 44°17' W 068°57'0 0.0
2018-Aug-17 01:30N 44°17' W 068°57'0 0.0
2018-Aug-17 00:54N 44°17' W 068°57'0 0.0
2018-Aug-17 00:20N 44°17' W 068°57'0 0.0
2018-Aug-17 00:00N 44°17' W 068°57'0 0.0
2018-Aug-16 23:28N 44°17' W 068°57'0 0.0
2018-Aug-16 22:56N 44°17' W 068°57'0 0.0
2018-Aug-16 22:30N 44°17' W 068°57'0 0.0
2018-Aug-16 21:55N 44°17' W 068°57'0 0.0
2018-Aug-16 21:29N 44°17' W 068°57'2 5.0
2018-Aug-16 21:00N 44°17' W 068°60'2 4.9
2018-Aug-16 20:30N 44°17' W 068°57'1 1.8
2018-Aug-16 19:43N 44°17' W 068°59'1 5.3
2018-Aug-16 19:27N 44°17' W 068°57'2 2.5
2018-Aug-16 18:47N 44°17' W 068°59'2 5.5
2018-Aug-16 18:29N 44°17' W 068°57'2 3.2
2018-Aug-16 17:44N 44°17' W 068°60'2 9.9
2018-Aug-16 17:29N 44°17' W 068°57'2 3.0
2018-Aug-16 16:43N 44°17' W 068°60'2 9.1
2018-Aug-16 16:27N 44°17' W 068°57'0 0.0
2018-Aug-16 16:00N 44°17' W 068°57'0 0.0
2018-Aug-16 15:30N 44°17' W 068°57'2 5.0
2018-Aug-16 15:00N 44°17' W 069°00'2 5.0
2018-Aug-16 14:30N 44°17' W 068°57'2 2.7
2018-Aug-16 13:44N 44°17' W 068°60'2 8.9
2018-Aug-16 13:30N 44°17' W 068°57'2 2.9
2018-Aug-16 12:42N 44°17' W 068°60'210.7
2018-Aug-16 12:29N 44°17' W 068°57'2 3.2
2018-Aug-16 11:43N 44°17' W 069°00'211.9
2018-Aug-16 11:30N 44°17' W 068°57'0 0.1
2018-Aug-16 11:00N 44°17' W 068°57'0 0.0
2018-Aug-16 10:29N 44°17' W 068°57'0 0.0
2018-Aug-16 10:00N 44°17' W 068°57'0 0.0
2018-Aug-16 09:18N 44°17' W 068°57'0 0.0
2018-Aug-16 04:38N 44°17' W 068°57'0 0.0
2018-Aug-16 04:27N 44°17' W 068°57'0 0.0
2018-Aug-16 04:00N 44°17' W 068°57'0 0.0
2018-Aug-16 03:29N 44°17' W 068°57'0 0.0
2018-Aug-16 02:25N 44°17' W 068°57'0 0.0
2018-Aug-16 01:49N 44°17' W 068°57'0 0.0
2018-Aug-16 01:26N 44°17' W 068°57'0 0.0
2018-Aug-16 01:00N 44°17' W 068°57'0 0.0
2018-Aug-16 00:30N 44°17' W 068°57'0 0.0
2018-Aug-16 00:00N 44°17' W 068°57'0 0.0
2018-Aug-15 23:30N 44°17' W 068°57'0 0.0
2018-Aug-15 23:00N 44°17' W 068°57'0 0.0
2018-Aug-15 22:30N 44°17' W 068°57'0 0.0
2018-Aug-15 22:00N 44°17' W 068°57'2 3.5
2018-Aug-15 21:30N 44°17' W 068°59'1 1.7
2018-Aug-15 21:00N 44°17' W 069°00'3 5.1
2018-Aug-15 20:30N 44°17' W 068°57'3 5.4
2018-Aug-15 20:00N 44°17' W 069°00'3 3.1
2018-Aug-15 19:09N 44°17' W 068°57'1 5.7
2018-Aug-15 19:00N 44°17' W 068°58'2 3.6
2018-Aug-15 18:29N 44°17' W 069°00'0 0.0
2018-Aug-15 17:51N 44°17' W 069°00'3 4.7
2018-Aug-15 17:17N 44°17' W 068°57'3 7.2
2018-Aug-15 16:54N 44°17' W 069°00'3 1.6
2018-Aug-15 15:15N 44°17' W 068°57'3 9.9
2018-Aug-15 14:58N 44°17' W 069°00'3 3.8
2018-Aug-15 14:16N 44°17' W 068°57'3 5.1
2018-Aug-15 13:46N 44°17' W 069°00'3 9.8
2018-Aug-15 13:30N 44°17' W 068°57'3 4.3
2018-Aug-15 12:53N 44°17' W 069°00'3 4.5
2018-Aug-15 12:17N 44°17' W 068°57'3 5.5
2018-Aug-15 11:49N 44°17' W 069°00'3 1.2
2018-Aug-15 09:38N 44°17' W 068°57'0 0.0
2018-Aug-15 09:28N 44°17' W 068°57'0 0.0
2018-Aug-15 08:52N 44°17' W 068°57'0 0.0
2018-Aug-15 08:13N 44°17' W 068°57'0 0.0
2018-Aug-15 07:55N 44°17' W 068°57'0 0.0
2018-Aug-15 07:30N 44°17' W 068°57'0 0.0
2018-Aug-15 07:00N 44°17' W 068°57'0 0.0
2018-Aug-15 02:12N 44°17' W 068°57'0 0.0
2018-Aug-15 02:00N 44°17' W 068°57'0 0.0
2018-Aug-15 01:25N 44°17' W 068°57'0 0.0
2018-Aug-15 00:54N 44°17' W 068°57'0 0.0
2018-Aug-14 21:14N 44°17' W 068°57'210.9
2018-Aug-14 21:00N 44°17' W 069°00'2 3.1
2018-Aug-14 20:13N 44°17' W 068°57'211.2
2018-Aug-14 20:00N 44°17' W 068°60'2 3.2
2018-Aug-14 19:15N 44°17' W 068°57'210.4
2018-Aug-14 19:00N 44°17' W 069°00'3 3.5
2018-Aug-14 18:17N 44°17' W 068°57'3 9.4
2018-Aug-14 18:00N 44°17' W 069°00'3 5.4
2018-Aug-14 17:30N 44°17' W 068°57'2 4.9
2018-Aug-14 17:01N 44°17' W 069°00'2 4.9
2018-Aug-14 16:30N 44°17' W 068°57'0 0.0
2018-Aug-14 15:14N 44°17' W 068°57'3 6.0
2018-Aug-14 14:48N 44°17' W 069°00'3 8.9
2018-Aug-14 14:30N 44°17' W 068°57'3 5.2
2018-Aug-14 13:59N 44°17' W 069°00'3 4.3
2018-Aug-14 13:21N 44°17' W 068°57'3 6.8
2018-Aug-14 12:58N 44°17' W 069°00'3 5.8
2018-Aug-14 12:30N 44°17' W 068°57'3 5.2
2018-Aug-14 11:59N 44°17' W 069°00'3 5.3
2018-Aug-14 11:29N 44°17' W 068°57'0 0.0
2018-Aug-14 11:00N 44°17' W 068°57'0 0.0
2018-Aug-14 10:24N 44°17' W 068°57'0 0.0
2018-Aug-14 09:59N 44°17' W 068°57'0 0.0
2018-Aug-14 09:30N 44°17' W 068°57'0 0.0
2018-Aug-14 09:00N 44°17' W 068°57'0 0.0
2018-Aug-14 08:30N 44°17' W 068°57'0 0.0
2018-Aug-14 07:55N 44°17' W 068°57'0 0.0
2018-Aug-14 07:29N 44°17' W 068°57'0 0.0
2018-Aug-14 06:58N 44°17' W 068°57'0 0.0
2018-Aug-14 06:11N 44°17' W 068°57'0 0.0
2018-Aug-14 02:43N 44°17' W 068°57'0 0.0
2018-Aug-14 02:24N 44°17' W 068°57'0 0.0
2018-Aug-14 01:56N 44°17' W 068°57'0 0.0
2018-Aug-14 01:30N 44°17' W 068°57'0 0.0
2018-Aug-14 00:58N 44°17' W 068°57'0 0.0
2018-Aug-14 00:12N 44°17' W 068°57'0 0.0
2018-Aug-13 23:56N 44°17' W 068°57'0 0.0
2018-Aug-13 23:08N 44°17' W 068°57'0 0.0
2018-Aug-13 23:00N 44°17' W 068°57'0 0.0
2018-Aug-13 22:26N 44°17' W 068°57'0 0.0
2018-Aug-13 22:00N 44°17' W 068°57'0 0.0
2018-Aug-13 21:14N 44°17' W 068°57'311.3
2018-Aug-13 21:00N 44°17' W 069°00'3 4.8
2018-Aug-13 20:28N 44°17' W 068°57'3 5.9
2018-Aug-13 20:00N 44°17' W 069°00'3 3.7
2018-Aug-13 19:16N 44°17' W 068°57'310.1
2018-Aug-13 19:00N 44°17' W 069°00'3 4.3
2018-Aug-13 18:24N 44°17' W 068°57'3 6.3
2018-Aug-13 17:59N 44°17' W 069°00'3 5.3
2018-Aug-13 17:29N 44°17' W 068°57'3 5.5
2018-Aug-13 16:59N 44°17' W 069°00'3 5.4
2018-Aug-13 16:30N 44°17' W 068°57'0 0.0
2018-Aug-13 16:00N 44°17' W 068°57'0 0.0
2018-Aug-13 15:30N 44°17' W 068°57'3 4.6
2018-Aug-13 14:55N 44°17' W 069°00'3 6.2
2018-Aug-13 14:29N 44°17' W 068°57'3 4.7
2018-Aug-13 13:55N 44°17' W 069°00'3 6.0
2018-Aug-13 13:29N 44°17' W 068°57'3 5.4
2018-Aug-13 12:59N 44°17' W 069°00'3 5.1
2018-Aug-13 12:27N 44°17' W 068°57'3 5.9
2018-Aug-13 12:00N 44°17' W 069°00'3 5.3
2018-Aug-13 11:30N 44°17' W 068°57'0 0.0
2018-Aug-12 21:23N 44°17' W 068°57'3 5.5
2018-Aug-12 20:54N 44°17' W 069°00'3 6.4
2018-Aug-12 20:30N 44°17' W 068°57'3 4.8
2018-Aug-12 19:59N 44°17' W 069°00'3 5.6
2018-Aug-12 19:31N 44°17' W 068°57'2 4.9
2018-Aug-12 19:00N 44°17' W 069°00'2 5.0
2018-Aug-12 18:31N 44°17' W 068°57'3 5.3
2018-Aug-12 18:00N 44°17' W 069°00'3 5.3
2018-Aug-12 17:31N 44°17' W 068°57'3 5.3
2018-Aug-12 17:00N 44°17' W 069°00'3 5.3
2018-Aug-12 16:30N 44°17' W 068°57'0 0.0
2018-Aug-12 16:00N 44°17' W 068°57'0 0.0
2018-Aug-12 15:30N 44°17' W 068°57'3 5.3
2018-Aug-12 15:00N 44°17' W 069°00'3 5.4
2018-Aug-12 14:30N 44°17' W 068°57'3 5.2
2018-Aug-12 14:00N 44°17' W 069°00'3 5.5
2018-Aug-12 13:30N 44°17' W 068°57'3 5.4
2018-Aug-12 13:00N 44°17' W 069°00'3 5.3
2018-Aug-12 12:30N 44°17' W 068°57'3 5.3
2018-Aug-12 12:00N 44°17' W 069°00'3 5.3
2018-Aug-12 11:30N 44°17' W 068°57'0 0.0
2018-Aug-11 21:15N 44°17' W 068°57'310.7
2018-Aug-11 21:01N 44°17' W 069°00'3 5.2
2018-Aug-11 20:30N 44°17' W 068°57'3 5.3
2018-Aug-11 20:00N 44°17' W 069°00'3 5.3
2018-Aug-11 19:30N 44°17' W 068°57'3 5.3
2018-Aug-11 19:00N 44°17' W 069°00'3 5.3
2018-Aug-11 18:30N 44°17' W 068°57'3 5.3
2018-Aug-11 18:00N 44°17' W 069°00'3 5.4
2018-Aug-11 17:30N 44°17' W 068°57'3 5.4
2018-Aug-11 17:00N 44°17' W 069°00'3 5.3
2018-Aug-11 16:30N 44°17' W 068°57'0 0.1
2018-Aug-11 16:00N 44°17' W 068°57'0 0.0
2018-Aug-11 15:30N 44°17' W 068°57'3 5.4
2018-Aug-11 15:00N 44°17' W 069°00'3 5.2
2018-Aug-11 14:29N 44°17' W 068°57'3 5.5
2018-Aug-11 14:00N 44°17' W 069°00'3 5.3
2018-Aug-11 13:30N 44°17' W 068°57'3 5.3
2018-Aug-11 13:00N 44°17' W 069°00'3 5.4
2018-Aug-11 12:30N 44°17' W 068°57'3 5.3
2018-Aug-11 12:00N 44°17' W 069°00'3 5.4
2018-Aug-11 11:30N 44°17' W 068°57'0 0.0
2018-Aug-10 21:17N 44°17' W 068°57'3 9.0
2018-Aug-10 21:01N 44°17' W 069°00'3 5.1
2018-Aug-10 20:30N 44°17' W 068°57'3 5.4
2018-Aug-10 20:00N 44°17' W 069°00'3 5.4
2018-Aug-10 19:30N 44°17' W 068°57'3 3.2
2018-Aug-10 18:43N 44°17' W 069°00'212.3
2018-Aug-10 18:30N 44°17' W 068°57'2 3.2
2018-Aug-10 17:44N 44°17' W 069°00'210.1
2018-Aug-10 17:30N 44°17' W 068°57'2 2.8
2018-Aug-10 16:42N 44°17' W 068°60'210.9
2018-Aug-10 16:30N 44°17' W 068°57'0 0.3
2018-Aug-10 16:00N 44°17' W 068°57'1 1.1
2018-Aug-10 15:30N 44°17' W 068°58'2 3.9
2018-Aug-10 15:00N 44°17' W 069°00'3 5.0
2018-Aug-10 14:28N 44°17' W 068°57'3 4.9
2018-Aug-10 13:56N 44°17' W 069°00'3 5.9
2018-Aug-10 13:28N 44°17' W 068°57'3 5.6
2018-Aug-10 13:00N 44°17' W 069°00'3 5.5
2018-Aug-10 12:30N 44°17' W 068°57'3 5.4
2018-Aug-10 12:00N 44°17' W 069°00'3 5.2
2018-Aug-10 11:30N 44°17' W 068°57'1 2.3
2018-Aug-10 11:00N 44°17' W 068°58'1 2.2
2018-Aug-10 10:30N 44°17' W 068°57'  

Dump ship's entire track history